This is the latest recevied weather packets stored in our database for station/object WX7FGZ-7. If no packets are shown the sender has not sent any weather packets the latest 10 day(s).
| Time | Temp. | Humidity | Pressure | Rain* | Wind** | Luminosity | Snow |
|---|---|---|---|---|---|---|---|
| 1777934331 | 23.33° C | 21% | 1011.8 hPa | 0 mm | - | - | - |
| 1777934058 | 23.33° C | 21% | 1011.8 hPa | 0 mm | - | - | - |
| 1777933189 | 23.33° C | 21% | 1012.1 hPa | 0 mm | - | - | - |
| 1777932858 | 23.33° C | 21% | 1012.1 hPa | 0 mm | - | - | - |
| 1777932587 | 12.22° C | 48% | 1015 hPa | 0 mm | - | - | - |
| 1777932575 | 11.67° C | 52% | 1015.1 hPa | 0 mm | - | - | - |
| 1777932571 | 23.33° C | 21% | 1012.1 hPa | 0 mm | - | - | - |
| 1777932568 | 11.11° C | 57% | 1015 hPa | 0 mm | - | - | - |
| 1777932553 | 23.89° C | 21% | 1012.2 hPa | 0 mm | - | - | - |
| 1777932253 | 23.33° C | 21% | 1012.1 hPa | 0 mm | - | - | - |
| 1777932242 | 23.33° C | 20% | 1012.3 hPa | 0 mm | - | - | - |
| 1777932086 | 23.33° C | 21% | 1012.5 hPa | 0 mm | - | - | - |
| 1777931955 | 23.33° C | 20% | 1012.3 hPa | 0 mm | - | - | - |
| 1777931663 | 23.33° C | 21% | 1012.5 hPa | 0 mm | - | - | - |
| 1777931057 | 23.89° C | 20% | 1012.7 hPa | 0 mm | - | - | - |
| 1777930479 | 23.33° C | 20% | 1012.9 hPa | 0 mm | - | - | - |
| 1777930466 | 23.89° C | 20% | 1012.9 hPa | 0 mm | - | - | - |
| 1777930165 | 23.33° C | 20% | 1012.9 hPa | 0 mm | - | - | - |
| 1777929863 | 23.33° C | 18% | 1012.9 hPa | 0 mm | - | - | - |
| 1777929793 | 23.33° C | 20% | 1013 hPa | 0 mm | - | - | - |
| 1777929563 | 23.33° C | 20% | 1013 hPa | 0 mm | - | - | - |
| 1777928965 | 22.78° C | 22% | 1013.1 hPa | 0 mm | - | - | - |
| 1777928065 | 22.22° C | 23% | 1013.4 hPa | 0 mm | - | - | - |
| 1777927466 | 21.67° C | 25% | 1013.4 hPa | 0 mm | - | - | - |
| 1777927195 | 21.67° C | 24% | 1013.3 hPa | 0 mm | - | - | - |
* Rain latest hour (hover to see other rain measurements)
** Current wind speed in m/s (hover to see current wind gust speed)